Terminal Aerodrome Forecast
Issued by NWS

Home | Current Version | Previous Version | Graphics & Text | Print | Product List | Glossary On
Versions: 1 2 3 4 5 6 7 8 9 10 11 12 13 14 15 16 17 18 19 20 21 22
000
FTUS42 KMHX 300500 AAA
TAFOAJ
TAF AMD
KOAJ 300557Z 3006/3106 34005KT 6SM -SHRA SCT006 BKN030
      TEMPO 3006/3009 3SM SHRA BKN006
     FM301000 36006KT P6SM SCT020 BKN035
     FM301300 01008KT P6SM SCT040 BKN100
      AMD LTD TO CLD VIS AND WIND=

USA.gov is the U.S. government's official web portal to all federal, state and local government web resources and services.